Moapa, Nevada
Current Conditions -  °F | °C
As of 6:58 AM on Monday 22 Dec 2014 (Local Time) from KLSV Reporting Station
Clear Clear  
Wind Chill: 38°   Ceiling: Unl
Heat Index: 38°   Visibility: 10mi
Dew Point: 36°   Wind: 3mph
Humidity: 93%   Direction: 220°SW
Pressure: 30.08"   Gusts: NA
Location:  36.67°N, 114.62°W
Report Text: KLSV 221458Z AUTO 22003KT 10SM CLR 03/02 A3008 RMK AO2 SLP188 T00320022 55000 $
Loading
Personal Weather Stations






























Interactive Weather Map New forecast layout! Learn more

10-Day Weather Forecast

Advertisements
Track Severe Weather on mobile